sensor_id;sensor_type;location;lat;lon;timestamp;temperature;humidity
18384;DHT22;9318;48.644;9.456;2022-09-09T00:02:18;17.30;99.90
18384;DHT22;9318;48.644;9.456;2022-09-09T00:04:52;17.20;99.90
18384;DHT22;9318;48.644;9.456;2022-09-09T00:07:27;17.20;99.90
18384;DHT22;9318;48.644;9.456;2022-09-09T00:10:06;17.10;99.90
18384;DHT22;9318;48.644;9.456;2022-09-09T00:12:39;17.20;99.90
18384;DHT22;9318;48.644;9.456;2022-09-09T00:15:12;17.30;99.90
18384;DHT22;9318;48.644;9.456;2022-09-09T00:17:45;17.40;99.90
18384;DHT22;9318;48.644;9.456;2022-09-09T00:20:19;17.60;99.90
18384;DHT22;9318;48.644;9.456;2022-09-09T00:22:53;17.70;99.90
18384;DHT22;9318;48.644;9.456;2022-09-09T00:25:31;17.70;99.90
18384;DHT22;9318;48.644;9.456;2022-09-09T00:28:02;17.70;99.90
18384;DHT22;9318;48.644;9.456;2022-09-09T00:30:33;17.70;99.90
18384;DHT22;9318;48.644;9.456;2022-09-09T00:33:03;17.80;99.90
18384;DHT22;9318;48.644;9.456;2022-09-09T00:35:38;17.90;99.90
18384;DHT22;9318;48.644;9.456;2022-09-09T00:38:13;18.00;99.90
18384;DHT22;9318;48.644;9.456;2022-09-09T00:40:48;17.90;99.90
18384;DHT22;9318;48.644;9.456;2022-09-09T00:43:26;18.00;99.90
18384;DHT22;9318;48.644;9.456;2022-09-09T00:46:21;18.00;99.90
18384;DHT22;9318;48.644;9.456;2022-09-09T00:48:58;17.80;99.90
18384;DHT22;9318;48.644;9.456;2022-09-09T00:51:39;17.80;99.90
18384;DHT22;9318;48.644;9.456;2022-09-09T00:54:30;17.80;99.90
18384;DHT22;9318;48.644;9.456;2022-09-09T00:57:13;17.70;99.90
18384;DHT22;9318;48.644;9.456;2022-09-09T00:59:47;17.70;99.90
18384;DHT22;9318;48.644;9.456;2022-09-09T01:02:21;17.80;99.90
18384;DHT22;9318;48.644;9.456;2022-09-09T01:04:52;17.70;99.90
18384;DHT22;9318;48.644;9.456;2022-09-09T01:07:20;17.70;99.90
18384;DHT22;9318;48.644;9.456;2022-09-09T01:09:56;17.70;99.90
18384;DHT22;9318;48.644;9.456;2022-09-09T01:12:31;17.70;99.90
18384;DHT22;9318;48.644;9.456;2022-09-09T01:15:09;17.70;99.90
18384;DHT22;9318;48.644;9.456;2022-09-09T01:17:49;17.70;99.90
18384;DHT22;9318;48.644;9.456;2022-09-09T01:20:23;17.70;99.90
18384;DHT22;9318;48.644;9.456;2022-09-09T01:23:04;17.70;99.90
18384;DHT22;9318;48.644;9.456;2022-09-09T01:28:47;17.80;99.90
18384;DHT22;9318;48.644;9.456;2022-09-09T01:31:17;17.60;99.90
18384;DHT22;9318;48.644;9.456;2022-09-09T01:33:45;17.60;99.90
18384;DHT22;9318;48.644;9.456;2022-09-09T01:36:17;17.60;99.90
18384;DHT22;9318;48.644;9.456;2022-09-09T01:38:46;17.60;99.90
18384;DHT22;9318;48.644;9.456;2022-09-09T01:41:13;17.60;99.90
18384;DHT22;9318;48.644;9.456;2022-09-09T01:43:40;17.60;99.90
18384;DHT22;9318;48.644;9.456;2022-09-09T01:46:10;17.60;99.90
18384;DHT22;9318;48.644;9.456;2022-09-09T01:48:37;17.50;99.90
18384;DHT22;9318;48.644;9.456;2022-09-09T01:51:04;17.40;99.90
18384;DHT22;9318;48.644;9.456;2022-09-09T01:53:31;17.30;99.90
18384;DHT22;9318;48.644;9.456;2022-09-09T01:56:04;17.30;99.90
18384;DHT22;9318;48.644;9.456;2022-09-09T01:58:45;17.30;99.90
18384;DHT22;9318;48.644;9.456;2022-09-09T02:01:25;17.30;99.90
18384;DHT22;9318;48.644;9.456;2022-09-09T02:03:57;17.30;99.90
18384;DHT22;9318;48.644;9.456;2022-09-09T02:06:28;17.30;99.90
18384;DHT22;9318;48.644;9.456;2022-09-09T02:08:59;17.20;99.90
18384;DHT22;9318;48.644;9.456;2022-09-09T02:11:28;17.20;99.90
18384;DHT22;9318;48.644;9.456;2022-09-09T02:14:00;17.20;99.90
18384;DHT22;9318;48.644;9.456;2022-09-09T02:16:34;17.20;99.90
18384;DHT22;9318;48.644;9.456;2022-09-09T02:19:03;17.10;99.90
18384;DHT22;9318;48.644;9.456;2022-09-09T02:21:32;17.00;99.90
18384;DHT22;9318;48.644;9.456;2022-09-09T02:24:04;16.90;99.90
18384;DHT22;9318;48.644;9.456;2022-09-09T02:26:34;16.90;99.90
18384;DHT22;9318;48.644;9.456;2022-09-09T02:29:06;16.70;99.90
18384;DHT22;9318;48.644;9.456;2022-09-09T02:31:37;16.80;99.90
18384;DHT22;9318;48.644;9.456;2022-09-09T02:34:05;16.90;99.90
18384;DHT22;9318;48.644;9.456;2022-09-09T02:36:37;16.90;99.90
18384;DHT22;9318;48.644;9.456;2022-09-09T02:39:08;17.00;99.90
18384;DHT22;9318;48.644;9.456;2022-09-09T02:41:39;17.10;99.90
18384;DHT22;9318;48.644;9.456;2022-09-09T02:44:10;17.10;99.90
18384;DHT22;9318;48.644;9.456;2022-09-09T02:49:43;16.90;99.90
18384;DHT22;9318;48.644;9.456;2022-09-09T02:52:14;16.80;99.90
18384;DHT22;9318;48.644;9.456;2022-09-09T02:54:43;16.80;99.90
18384;DHT22;9318;48.644;9.456;2022-09-09T02:57:12;16.70;99.90
18384;DHT22;9318;48.644;9.456;2022-09-09T02:59:43;16.70;99.90
18384;DHT22;9318;48.644;9.456;2022-09-09T03:02:13;16.50;99.90
18384;DHT22;9318;48.644;9.456;2022-09-09T03:04:40;16.50;99.90
18384;DHT22;9318;48.644;9.456;2022-09-09T03:07:10;16.60;99.90
18384;DHT22;9318;48.644;9.456;2022-09-09T03:09:37;16.60;99.90
18384;DHT22;9318;48.644;9.456;2022-09-09T03:12:05;16.70;99.90
18384;DHT22;9318;48.644;9.456;2022-09-09T03:14:32;16.70;99.90
18384;DHT22;9318;48.644;9.456;2022-09-09T03:17:00;16.70;99.90
18384;DHT22;9318;48.644;9.456;2022-09-09T03:19:29;16.70;99.90
18384;DHT22;9318;48.644;9.456;2022-09-09T03:21:57;16.70;99.90
18384;DHT22;9318;48.644;9.456;2022-09-09T03:24:24;16.70;99.90
18384;DHT22;9318;48.644;9.456;2022-09-09T03:26:51;16.70;99.90
18384;DHT22;9318;48.644;9.456;2022-09-09T03:29:18;16.70;99.90
18384;DHT22;9318;48.644;9.456;2022-09-09T03:31:45;16.70;99.90
18384;DHT22;9318;48.644;9.456;2022-09-09T03:34:13;16.80;99.90
18384;DHT22;9318;48.644;9.456;2022-09-09T03:36:42;16.70;99.90
18384;DHT22;9318;48.644;9.456;2022-09-09T03:39:09;16.70;99.90
18384;DHT22;9318;48.644;9.456;2022-09-09T03:41:36;16.80;99.90
18384;DHT22;9318;48.644;9.456;2022-09-09T03:44:04;16.80;99.90
18384;DHT22;9318;48.644;9.456;2022-09-09T03:46:31;16.80;99.90
18384;DHT22;9318;48.644;9.456;2022-09-09T03:48:59;16.80;99.90
18384;DHT22;9318;48.644;9.456;2022-09-09T03:51:27;16.80;99.90
18384;DHT22;9318;48.644;9.456;2022-09-09T03:53:55;16.80;99.90
18384;DHT22;9318;48.644;9.456;2022-09-09T03:56:23;16.80;99.90
18384;DHT22;9318;48.644;9.456;2022-09-09T03:58:51;16.80;99.90
18384;DHT22;9318;48.644;9.456;2022-09-09T04:01:18;17.00;99.90
18384;DHT22;9318;48.644;9.456;2022-09-09T04:03:45;17.00;99.90
18384;DHT22;9318;48.644;9.456;2022-09-09T04:06:12;17.00;99.90
18384;DHT22;9318;48.644;9.456;2022-09-09T04:08:41;16.90;99.90
18384;DHT22;9318;48.644;9.456;2022-09-09T04:11:09;16.90;99.90
18384;DHT22;9318;48.644;9.456;2022-09-09T04:13:38;16.90;99.90
18384;DHT22;9318;48.644;9.456;2022-09-09T04:16:06;16.90;99.90
18384;DHT22;9318;48.644;9.456;2022-09-09T04:18:33;16.90;99.90
18384;DHT22;9318;48.644;9.456;2022-09-09T04:21:01;16.90;99.90
18384;DHT22;9318;48.644;9.456;2022-09-09T04:23:29;16.80;99.90
18384;DHT22;9318;48.644;9.456;2022-09-09T04:25:58;16.80;99.90
18384;DHT22;9318;48.644;9.456;2022-09-09T04:28:29;16.70;99.90
18384;DHT22;9318;48.644;9.456;2022-09-09T04:30:57;16.80;99.90
18384;DHT22;9318;48.644;9.456;2022-09-09T04:33:24;16.70;99.90
18384;DHT22;9318;48.644;9.456;2022-09-09T04:35:53;16.70;99.90
18384;DHT22;9318;48.644;9.456;2022-09-09T04:38:21;16.70;99.90
18384;DHT22;9318;48.644;9.456;2022-09-09T04:40:50;16.70;99.90
18384;DHT22;9318;48.644;9.456;2022-09-09T04:43:19;16.70;99.90
18384;DHT22;9318;48.644;9.456;2022-09-09T04:45:50;16.70;99.90
18384;DHT22;9318;48.644;9.456;2022-09-09T04:48:18;16.80;99.90
18384;DHT22;9318;48.644;9.456;2022-09-09T04:50:54;16.80;99.90
18384;DHT22;9318;48.644;9.456;2022-09-09T04:53:21;16.70;99.90
18384;DHT22;9318;48.644;9.456;2022-09-09T04:55:49;16.70;99.90
18384;DHT22;9318;48.644;9.456;2022-09-09T04:58:16;16.70;99.90
18384;DHT22;9318;48.644;9.456;2022-09-09T05:00:44;16.60;99.90
18384;DHT22;9318;48.644;9.456;2022-09-09T05:03:13;16.70;99.90
18384;DHT22;9318;48.644;9.456;2022-09-09T05:05:40;16.70;99.90
18384;DHT22;9318;48.644;9.456;2022-09-09T05:08:09;16.80;99.90
18384;DHT22;9318;48.644;9.456;2022-09-09T05:10:37;16.80;99.90
18384;DHT22;9318;48.644;9.456;2022-09-09T05:13:05;16.90;99.90
18384;DHT22;9318;48.644;9.456;2022-09-09T05:15:32;16.90;99.90
18384;DHT22;9318;48.644;9.456;2022-09-09T05:17:59;16.90;99.90
18384;DHT22;9318;48.644;9.456;2022-09-09T05:20:29;16.90;99.90
18384;DHT22;9318;48.644;9.456;2022-09-09T05:22:56;16.90;99.90
18384;DHT22;9318;48.644;9.456;2022-09-09T05:25:24;16.80;99.90
18384;DHT22;9318;48.644;9.456;2022-09-09T05:27:52;17.00;99.90
18384;DHT22;9318;48.644;9.456;2022-09-09T05:30:20;17.10;99.90
18384;DHT22;9318;48.644;9.456;2022-09-09T05:32:47;17.20;99.90
18384;DHT22;9318;48.644;9.456;2022-09-09T05:35:15;17.20;99.90
18384;DHT22;9318;48.644;9.456;2022-09-09T05:37:46;17.10;99.90
18384;DHT22;9318;48.644;9.456;2022-09-09T05:40:13;17.10;99.90
18384;DHT22;9318;48.644;9.456;2022-09-09T05:42:40;17.10;99.90
18384;DHT22;9318;48.644;9.456;2022-09-09T05:45:08;17.10;99.90
18384;DHT22;9318;48.644;9.456;2022-09-09T05:47:36;17.00;99.90
18384;DHT22;9318;48.644;9.456;2022-09-09T05:50:04;17.00;99.90
18384;DHT22;9318;48.644;9.456;2022-09-09T05:52:32;17.20;99.90
18384;DHT22;9318;48.644;9.456;2022-09-09T05:55:00;17.40;99.90
18384;DHT22;9318;48.644;9.456;2022-09-09T05:57:30;17.50;99.90
18384;DHT22;9318;48.644;9.456;2022-09-09T05:59:57;17.60;99.90
18384;DHT22;9318;48.644;9.456;2022-09-09T06:02:25;17.60;99.90
18384;DHT22;9318;48.644;9.456;2022-09-09T06:04:52;17.60;99.90
18384;DHT22;9318;48.644;9.456;2022-09-09T06:07:20;17.50;99.90
18384;DHT22;9318;48.644;9.456;2022-09-09T06:09:47;17.40;99.90
18384;DHT22;9318;48.644;9.456;2022-09-09T06:12:18;17.40;99.90
18384;DHT22;9318;48.644;9.456;2022-09-09T06:14:46;17.40;99.90
18384;DHT22;9318;48.644;9.456;2022-09-09T06:17:13;17.50;99.90
18384;DHT22;9318;48.644;9.456;2022-09-09T06:19:40;17.60;99.90
18384;DHT22;9318;48.644;9.456;2022-09-09T06:22:07;17.50;99.90
18384;DHT22;9318;48.644;9.456;2022-09-09T06:24:38;17.70;99.90
18384;DHT22;9318;48.644;9.456;2022-09-09T06:27:05;17.70;99.90
18384;DHT22;9318;48.644;9.456;2022-09-09T06:29:34;17.70;99.90
18384;DHT22;9318;48.644;9.456;2022-09-09T06:32:02;17.70;99.90
18384;DHT22;9318;48.644;9.456;2022-09-09T06:34:29;17.70;99.90
18384;DHT22;9318;48.644;9.456;2022-09-09T06:36:57;17.70;99.90
18384;DHT22;9318;48.644;9.456;2022-09-09T06:39:24;17.80;99.90
18384;DHT22;9318;48.644;9.456;2022-09-09T06:41:51;17.90;99.90
18384;DHT22;9318;48.644;9.456;2022-09-09T06:44:19;18.00;99.90
18384;DHT22;9318;48.644;9.456;2022-09-09T06:46:48;18.00;99.90
18384;DHT22;9318;48.644;9.456;2022-09-09T06:49:15;18.10;99.90
18384;DHT22;9318;48.644;9.456;2022-09-09T06:51:42;18.30;99.90
18384;DHT22;9318;48.644;9.456;2022-09-09T06:54:11;18.50;99.90
18384;DHT22;9318;48.644;9.456;2022-09-09T06:56:39;18.60;99.90
18384;DHT22;9318;48.644;9.456;2022-09-09T06:59:08;18.60;99.90
18384;DHT22;9318;48.644;9.456;2022-09-09T07:01:36;18.70;99.90
18384;DHT22;9318;48.644;9.456;2022-09-09T07:04:07;18.70;99.90
18384;DHT22;9318;48.644;9.456;2022-09-09T07:06:36;18.70;99.90
18384;DHT22;9318;48.644;9.456;2022-09-09T07:09:05;18.70;99.90
18384;DHT22;9318;48.644;9.456;2022-09-09T07:11:37;18.60;99.90
18384;DHT22;9318;48.644;9.456;2022-09-09T07:14:04;18.60;99.90
18384;DHT22;9318;48.644;9.456;2022-09-09T07:16:32;18.70;99.90
18384;DHT22;9318;48.644;9.456;2022-09-09T07:19:03;18.70;99.90
18384;DHT22;9318;48.644;9.456;2022-09-09T07:21:32;18.70;99.90
18384;DHT22;9318;48.644;9.456;2022-09-09T07:24:00;18.70;99.90
18384;DHT22;9318;48.644;9.456;2022-09-09T07:26:29;18.80;99.90
18384;DHT22;9318;48.644;9.456;2022-09-09T07:28:57;18.90;99.90
18384;DHT22;9318;48.644;9.456;2022-09-09T07:31:26;18.80;99.90
18384;DHT22;9318;48.644;9.456;2022-09-09T07:33:54;18.80;99.90
18384;DHT22;9318;48.644;9.456;2022-09-09T07:36:23;18.80;99.90
18384;DHT22;9318;48.644;9.456;2022-09-09T07:38:55;18.80;99.90
18384;DHT22;9318;48.644;9.456;2022-09-09T07:41:24;18.90;99.90
18384;DHT22;9318;48.644;9.456;2022-09-09T07:43:52;19.00;99.90
18384;DHT22;9318;48.644;9.456;2022-09-09T07:46:24;19.10;99.90
18384;DHT22;9318;48.644;9.456;2022-09-09T07:48:54;19.20;99.90
18384;DHT22;9318;48.644;9.456;2022-09-09T07:51:23;19.20;99.90
18384;DHT22;9318;48.644;9.456;2022-09-09T07:53:54;19.30;99.90
18384;DHT22;9318;48.644;9.456;2022-09-09T07:56:23;19.50;99.90
18384;DHT22;9318;48.644;9.456;2022-09-09T07:58:51;19.50;99.90
18384;DHT22;9318;48.644;9.456;2022-09-09T08:01:20;19.70;99.90
18384;DHT22;9318;48.644;9.456;2022-09-09T08:03:53;19.80;99.90
18384;DHT22;9318;48.644;9.456;2022-09-09T08:06:22;19.80;99.90
18384;DHT22;9318;48.644;9.456;2022-09-09T08:08:53;19.70;99.90
18384;DHT22;9318;48.644;9.456;2022-09-09T08:11:22;19.80;99.90
18384;DHT22;9318;48.644;9.456;2022-09-09T08:13:50;19.90;99.90
18384;DHT22;9318;48.644;9.456;2022-09-09T08:16:20;20.00;99.90
18384;DHT22;9318;48.644;9.456;2022-09-09T08:18:48;20.10;99.90
18384;DHT22;9318;48.644;9.456;2022-09-09T08:21:19;20.20;99.90
18384;DHT22;9318;48.644;9.456;2022-09-09T08:23:47;20.30;99.90
18384;DHT22;9318;48.644;9.456;2022-09-09T08:26:17;20.40;99.90
18384;DHT22;9318;48.644;9.456;2022-09-09T08:28:48;20.50;99.90
18384;DHT22;9318;48.644;9.456;2022-09-09T08:31:18;20.60;99.90
18384;DHT22;9318;48.644;9.456;2022-09-09T08:33:47;20.50;99.90
18384;DHT22;9318;48.644;9.456;2022-09-09T08:36:15;20.50;99.90
18384;DHT22;9318;48.644;9.456;2022-09-09T08:38:46;20.40;99.90
18384;DHT22;9318;48.644;9.456;2022-09-09T08:41:30;20.60;99.90
18384;DHT22;9318;48.644;9.456;2022-09-09T08:44:03;20.60;99.90
18384;DHT22;9318;48.644;9.456;2022-09-09T08:46:36;20.70;99.90
18384;DHT22;9318;48.644;9.456;2022-09-09T08:49:18;20.60;99.90
18384;DHT22;9318;48.644;9.456;2022-09-09T08:51:49;20.60;99.90
18384;DHT22;9318;48.644;9.456;2022-09-09T08:54:17;20.50;99.90
18384;DHT22;9318;48.644;9.456;2022-09-09T08:56:46;20.40;99.90
18384;DHT22;9318;48.644;9.456;2022-09-09T08:59:17;20.40;99.90
18384;DHT22;9318;48.644;9.456;2022-09-09T09:01:58;20.40;99.90
18384;DHT22;9318;48.644;9.456;2022-09-09T09:04:39;20.50;99.90
18384;DHT22;9318;48.644;9.456;2022-09-09T09:07:18;20.50;99.90
18384;DHT22;9318;48.644;9.456;2022-09-09T09:09:57;20.50;99.90
18384;DHT22;9318;48.644;9.456;2022-09-09T09:12:32;20.50;99.90
18384;DHT22;9318;48.644;9.456;2022-09-09T09:15:05;20.60;99.90
18384;DHT22;9318;48.644;9.456;2022-09-09T09:17:38;20.70;99.90
18384;DHT22;9318;48.644;9.456;2022-09-09T09:20:11;20.80;99.90
18384;DHT22;9318;48.644;9.456;2022-09-09T09:22:46;20.90;99.90
18384;DHT22;9318;48.644;9.456;2022-09-09T09:25:17;21.20;99.90
18384;DHT22;9318;48.644;9.456;2022-09-09T09:27:52;21.40;99.90
18384;DHT22;9318;48.644;9.456;2022-09-09T09:30:29;21.50;99.90
18384;DHT22;9318;48.644;9.456;2022-09-09T09:33:00;21.50;99.90
18384;DHT22;9318;48.644;9.456;2022-09-09T09:35:29;21.50;99.90
18384;DHT22;9318;48.644;9.456;2022-09-09T09:37:56;21.60;99.90
18384;DHT22;9318;48.644;9.456;2022-09-09T09:40:26;21.60;99.90
18384;DHT22;9318;48.644;9.456;2022-09-09T09:42:57;21.70;99.90
18384;DHT22;9318;48.644;9.456;2022-09-09T09:45:33;21.70;99.90
18384;DHT22;9318;48.644;9.456;2022-09-09T09:48:02;21.70;99.90
18384;DHT22;9318;48.644;9.456;2022-09-09T09:50:30;21.80;99.90
18384;DHT22;9318;48.644;9.456;2022-09-09T09:53:00;21.90;99.90
18384;DHT22;9318;48.644;9.456;2022-09-09T09:55:31;22.10;99.90
18384;DHT22;9318;48.644;9.456;2022-09-09T09:58:06;22.30;99.90
18384;DHT22;9318;48.644;9.456;2022-09-09T10:00:47;22.40;99.90
18384;DHT22;9318;48.644;9.456;2022-09-09T10:03:25;22.60;99.90
18384;DHT22;9318;48.644;9.456;2022-09-09T10:05:53;22.90;99.90
18384;DHT22;9318;48.644;9.456;2022-09-09T10:08:22;23.10;99.90
18384;DHT22;9318;48.644;9.456;2022-09-09T10:11:10;23.50;99.90
18384;DHT22;9318;48.644;9.456;2022-09-09T10:13:48;23.80;99.90
18384;DHT22;9318;48.644;9.456;2022-09-09T10:16:32;24.00;99.90
18384;DHT22;9318;48.644;9.456;2022-09-09T10:19:04;24.20;99.90
18384;DHT22;9318;48.644;9.456;2022-09-09T10:22:02;24.40;99.90
18384;DHT22;9318;48.644;9.456;2022-09-09T10:28:17;24.60;97.50
18384;DHT22;9318;48.644;9.456;2022-09-09T10:31:00;24.80;97.70
18384;DHT22;9318;48.644;9.456;2022-09-09T10:33:35;25.00;97.20
18384;DHT22;9318;48.644;9.456;2022-09-09T10:36:12;25.30;97.60
18384;DHT22;9318;48.644;9.456;2022-09-09T10:38:41;25.70;96.20
18384;DHT22;9318;48.644;9.456;2022-09-09T10:41:19;26.30;94.30
18384;DHT22;9318;48.644;9.456;2022-09-09T10:44:25;26.20;93.10
18384;DHT22;9318;48.644;9.456;2022-09-09T10:47:19;25.80;93.30
18384;DHT22;9318;48.644;9.456;2022-09-09T10:50:06;25.40;93.00
18384;DHT22;9318;48.644;9.456;2022-09-09T10:52:41;25.40;93.50
18384;DHT22;9318;48.644;9.456;2022-09-09T10:55:17;26.20;92.30
18384;DHT22;9318;48.644;9.456;2022-09-09T10:57:46;26.60;91.80
18384;DHT22;9318;48.644;9.456;2022-09-09T11:00:17;26.50;90.80
18384;DHT22;9318;48.644;9.456;2022-09-09T11:02:50;26.00;90.60
18384;DHT22;9318;48.644;9.456;2022-09-09T11:05:21;25.60;90.80
18384;DHT22;9318;48.644;9.456;2022-09-09T11:07:54;25.40;91.20
18384;DHT22;9318;48.644;9.456;2022-09-09T11:10:25;25.60;92.10
18384;DHT22;9318;48.644;9.456;2022-09-09T11:13:00;26.30;91.70
18384;DHT22;9318;48.644;9.456;2022-09-09T11:15:35;27.00;89.20
18384;DHT22;9318;48.644;9.456;2022-09-09T11:18:08;27.10;89.10
18384;DHT22;9318;48.644;9.456;2022-09-09T11:20:38;27.80;85.80
18384;DHT22;9318;48.644;9.456;2022-09-09T11:23:10;28.60;86.40
18384;DHT22;9318;48.644;9.456;2022-09-09T11:25:41;29.20;82.10
18384;DHT22;9318;48.644;9.456;2022-09-09T11:28:37;30.30;74.90
18384;DHT22;9318;48.644;9.456;2022-09-09T11:31:21;31.20;68.90
18384;DHT22;9318;48.644;9.456;2022-09-09T11:34:12;31.80;68.10
18384;DHT22;9318;48.644;9.456;2022-09-09T11:37:06;32.70;68.10
18384;DHT22;9318;48.644;9.456;2022-09-09T11:39:53;33.30;60.10
18384;DHT22;9318;48.644;9.456;2022-09-09T11:42:24;33.20;61.40
18384;DHT22;9318;48.644;9.456;2022-09-09T11:44:52;31.60;60.20
18384;DHT22;9318;48.644;9.456;2022-09-09T11:47:24;30.10;63.90
18384;DHT22;9318;48.644;9.456;2022-09-09T11:50:09;29.00;69.60
18384;DHT22;9318;48.644;9.456;2022-09-09T11:52:37;27.80;72.70
18384;DHT22;9318;48.644;9.456;2022-09-09T11:55:10;26.40;74.20
18384;DHT22;9318;48.644;9.456;2022-09-09T11:57:38;25.20;81.10
18384;DHT22;9318;48.644;9.456;2022-09-09T12:02:49;23.30;96.70
18384;DHT22;9318;48.644;9.456;2022-09-09T12:05:18;23.10;99.30
18384;DHT22;9318;48.644;9.456;2022-09-09T12:07:51;23.70;99.90
18384;DHT22;9318;48.644;9.456;2022-09-09T12:10:23;23.80;97.70
18384;DHT22;9318;48.644;9.456;2022-09-09T12:12:52;24.00;98.70
18384;DHT22;9318;48.644;9.456;2022-09-09T12:15:23;24.00;98.70
18384;DHT22;9318;48.644;9.456;2022-09-09T12:17:55;23.80;98.90
18384;DHT22;9318;48.644;9.456;2022-09-09T12:20:31;23.50;99.20
18384;DHT22;9318;48.644;9.456;2022-09-09T12:23:15;23.20;99.90
18384;DHT22;9318;48.644;9.456;2022-09-09T12:25:57;24.40;99.90
18384;DHT22;9318;48.644;9.456;2022-09-09T12:28:42;26.80;97.40
18384;DHT22;9318;48.644;9.456;2022-09-09T12:31:16;29.30;95.40
18384;DHT22;9318;48.644;9.456;2022-09-09T12:33:46;31.80;86.90
18384;DHT22;9318;48.644;9.456;2022-09-09T12:36:17;33.60;77.10
18384;DHT22;9318;48.644;9.456;2022-09-09T12:38:45;34.90;72.40
18384;DHT22;9318;48.644;9.456;2022-09-09T12:41:19;36.00;69.00
18384;DHT22;9318;48.644;9.456;2022-09-09T12:43:47;36.80;61.50
18384;DHT22;9318;48.644;9.456;2022-09-09T12:46:23;37.50;61.30
18384;DHT22;9318;48.644;9.456;2022-09-09T12:48:53;38.20;56.40
18384;DHT22;9318;48.644;9.456;2022-09-09T12:51:25;38.60;52.00
18384;DHT22;9318;48.644;9.456;2022-09-09T12:53:55;38.10;49.80
18384;DHT22;9318;48.644;9.456;2022-09-09T12:56:24;38.60;50.80
18384;DHT22;9318;48.644;9.456;2022-09-09T12:58:54;38.60;51.40
18384;DHT22;9318;48.644;9.456;2022-09-09T13:01:24;39.40;50.80
18384;DHT22;9318;48.644;9.456;2022-09-09T13:03:52;39.70;47.50
18384;DHT22;9318;48.644;9.456;2022-09-09T13:06:23;38.80;46.30
18384;DHT22;9318;48.644;9.456;2022-09-09T13:08:51;38.80;51.10
18384;DHT22;9318;48.644;9.456;2022-09-09T13:11:22;39.20;49.70
18384;DHT22;9318;48.644;9.456;2022-09-09T13:13:52;38.80;46.10
18384;DHT22;9318;48.644;9.456;2022-09-09T13:16:22;37.90;46.20
18384;DHT22;9318;48.644;9.456;2022-09-09T13:18:52;37.70;48.80
18384;DHT22;9318;48.644;9.456;2022-09-09T13:21:31;37.90;48.10
18384;DHT22;9318;48.644;9.456;2022-09-09T13:24:00;37.70;47.00
18384;DHT22;9318;48.644;9.456;2022-09-09T13:26:29;36.90;48.30
18384;DHT22;9318;48.644;9.456;2022-09-09T13:29:15;37.10;48.80
18384;DHT22;9318;48.644;9.456;2022-09-09T13:31:45;36.80;47.10
18384;DHT22;9318;48.644;9.456;2022-09-09T13:34:13;36.70;48.70
18384;DHT22;9318;48.644;9.456;2022-09-09T13:36:47;36.70;46.60
18384;DHT22;9318;48.644;9.456;2022-09-09T13:39:16;36.40;48.00
18384;DHT22;9318;48.644;9.456;2022-09-09T13:41:45;37.00;46.20
18384;DHT22;9318;48.644;9.456;2022-09-09T13:44:17;37.10;45.40
18384;DHT22;9318;48.644;9.456;2022-09-09T13:47:00;36.80;45.80
18384;DHT22;9318;48.644;9.456;2022-09-09T13:49:29;37.30;45.80
18384;DHT22;9318;48.644;9.456;2022-09-09T13:52:10;37.20;44.30
18384;DHT22;9318;48.644;9.456;2022-09-09T13:54:39;36.50;44.50
18384;DHT22;9318;48.644;9.456;2022-09-09T13:57:15;36.60;45.80
18384;DHT22;9318;48.644;9.456;2022-09-09T13:59:44;36.50;44.60
18384;DHT22;9318;48.644;9.456;2022-09-09T14:02:11;37.00;45.40
18384;DHT22;9318;48.644;9.456;2022-09-09T14:04:38;36.50;44.80
18384;DHT22;9318;48.644;9.456;2022-09-09T14:07:11;35.60;45.90
18384;DHT22;9318;48.644;9.456;2022-09-09T14:09:40;35.70;46.40
18384;DHT22;9318;48.644;9.456;2022-09-09T14:12:11;35.90;46.30
18384;DHT22;9318;48.644;9.456;2022-09-09T14:14:41;36.20;46.80
18384;DHT22;9318;48.644;9.456;2022-09-09T14:17:11;36.80;45.80
18384;DHT22;9318;48.644;9.456;2022-09-09T14:19:43;36.30;46.10
18384;DHT22;9318;48.644;9.456;2022-09-09T14:22:14;35.90;44.80
18384;DHT22;9318;48.644;9.456;2022-09-09T14:24:44;35.50;47.10
18384;DHT22;9318;48.644;9.456;2022-09-09T14:27:16;35.80;48.20
18384;DHT22;9318;48.644;9.456;2022-09-09T14:29:45;36.40;45.90
18384;DHT22;9318;48.644;9.456;2022-09-09T14:32:14;37.10;46.60
18384;DHT22;9318;48.644;9.456;2022-09-09T14:34:42;36.80;44.70
18384;DHT22;9318;48.644;9.456;2022-09-09T14:37:13;35.80;47.50
18384;DHT22;9318;48.644;9.456;2022-09-09T14:39:40;36.00;47.90
18384;DHT22;9318;48.644;9.456;2022-09-09T14:42:10;36.30;45.70
18384;DHT22;9318;48.644;9.456;2022-09-09T14:44:39;37.00;46.60
18384;DHT22;9318;48.644;9.456;2022-09-09T14:47:08;37.40;44.70
18384;DHT22;9318;48.644;9.456;2022-09-09T14:49:37;37.90;43.60
18384;DHT22;9318;48.644;9.456;2022-09-09T14:52:06;37.30;43.80
18384;DHT22;9318;48.644;9.456;2022-09-09T14:54:38;36.90;44.00
18384;DHT22;9318;48.644;9.456;2022-09-09T14:57:06;36.40;45.30
18384;DHT22;9318;48.644;9.456;2022-09-09T14:59:34;34.90;45.80
18384;DHT22;9318;48.644;9.456;2022-09-09T15:02:02;33.10;49.30
18384;DHT22;9318;48.644;9.456;2022-09-09T15:04:30;30.90;50.60
18384;DHT22;9318;48.644;9.456;2022-09-09T15:06:57;29.30;53.60
18384;DHT22;9318;48.644;9.456;2022-09-09T15:09:26;29.10;54.90
18384;DHT22;9318;48.644;9.456;2022-09-09T15:11:56;28.90;55.10
18384;DHT22;9318;48.644;9.456;2022-09-09T15:14:24;29.60;54.60
18384;DHT22;9318;48.644;9.456;2022-09-09T15:16:54;30.70;54.40
18384;DHT22;9318;48.644;9.456;2022-09-09T15:19:26;31.50;51.10
18384;DHT22;9318;48.644;9.456;2022-09-09T15:21:57;32.20;52.40
18384;DHT22;9318;48.644;9.456;2022-09-09T15:24:27;32.60;51.30
18384;DHT22;9318;48.644;9.456;2022-09-09T15:26:59;31.60;51.70
18384;DHT22;9318;48.644;9.456;2022-09-09T15:29:27;30.70;52.90
18384;DHT22;9318;48.644;9.456;2022-09-09T15:31:56;29.80;54.70
18384;DHT22;9318;48.644;9.456;2022-09-09T15:34:25;28.70;55.70
18384;DHT22;9318;48.644;9.456;2022-09-09T15:36:53;27.90;58.80
18384;DHT22;9318;48.644;9.456;2022-09-09T15:39:22;26.90;59.30
18384;DHT22;9318;48.644;9.456;2022-09-09T15:41:53;26.20;61.00
18384;DHT22;9318;48.644;9.456;2022-09-09T15:44:23;25.90;62.40
18384;DHT22;9318;48.644;9.456;2022-09-09T15:46:55;26.10;63.10
18384;DHT22;9318;48.644;9.456;2022-09-09T15:49:24;26.20;61.60
18384;DHT22;9318;48.644;9.456;2022-09-09T15:51:53;26.30;62.20
18384;DHT22;9318;48.644;9.456;2022-09-09T15:54:21;26.60;60.00
18384;DHT22;9318;48.644;9.456;2022-09-09T15:56:51;26.70;60.20
18384;DHT22;9318;48.644;9.456;2022-09-09T15:59:22;26.50;60.70
18384;DHT22;9318;48.644;9.456;2022-09-09T16:01:49;26.20;61.70
18384;DHT22;9318;48.644;9.456;2022-09-09T16:04:18;25.70;62.00
18384;DHT22;9318;48.644;9.456;2022-09-09T16:06:49;25.30;63.70
18384;DHT22;9318;48.644;9.456;2022-09-09T16:09:18;24.90;64.50
18384;DHT22;9318;48.644;9.456;2022-09-09T16:11:48;24.60;66.00
18384;DHT22;9318;48.644;9.456;2022-09-09T16:14:19;24.30;66.90
18384;DHT22;9318;48.644;9.456;2022-09-09T16:16:49;24.00;67.10
18384;DHT22;9318;48.644;9.456;2022-09-09T16:19:20;23.80;68.40
18384;DHT22;9318;48.644;9.456;2022-09-09T16:21:49;23.50;70.10
18384;DHT22;9318;48.644;9.456;2022-09-09T16:24:19;23.30;69.90